sensor_id;sensor_type;location;lat;lon;timestamp;pressure;altitude;pressure_sealevel;temperature;humidity
49611;BME280;35515;48.766;9.176;2022-09-27T00:02:01;96619.56;;;11.23;89.24
49611;BME280;35515;48.766;9.176;2022-09-27T00:04:28;96611.59;;;11.38;87.53
49611;BME280;35515;48.766;9.176;2022-09-27T00:06:55;96603.75;;;11.42;87.09
49611;BME280;35515;48.766;9.176;2022-09-27T00:09:21;96606.09;;;11.61;85.69
49611;BME280;35515;48.766;9.176;2022-09-27T00:11:48;96603.72;;;11.37;87.94
49611;BME280;35515;48.766;9.176;2022-09-27T00:14:15;96603.09;;;11.30;87.72
49611;BME280;35515;48.766;9.176;2022-09-27T00:16:44;96601.47;;;11.29;89.05
49611;BME280;35515;48.766;9.176;2022-09-27T00:19:12;96596.13;;;11.39;88.88
49611;BME280;35515;48.766;9.176;2022-09-27T00:21:41;96600.66;;;11.61;86.91
49611;BME280;35515;48.766;9.176;2022-09-27T00:24:11;96593.16;;;11.41;88.42
49611;BME280;35515;48.766;9.176;2022-09-27T00:26:38;96587.25;;;11.44;88.13
49611;BME280;35515;48.766;9.176;2022-09-27T00:29:04;96586.34;;;11.33;88.17
49611;BME280;35515;48.766;9.176;2022-09-27T00:31:31;96587.25;;;11.16;88.96
49611;BME280;35515;48.766;9.176;2022-09-27T00:34:01;96590.66;;;11.34;89.71
49611;BME280;35515;48.766;9.176;2022-09-27T00:36:28;96588.47;;;11.31;89.90
49611;BME280;35515;48.766;9.176;2022-09-27T00:38:55;96581.16;;;11.31;89.79
49611;BME280;35515;48.766;9.176;2022-09-27T00:41:25;96575.34;;;11.17;89.93
49611;BME280;35515;48.766;9.176;2022-09-27T00:43:54;96577.03;;;11.24;91.13
49611;BME280;35515;48.766;9.176;2022-09-27T00:46:25;96578.09;;;11.23;90.62
49611;BME280;35515;48.766;9.176;2022-09-27T00:49:02;96576.63;;;11.37;89.74
49611;BME280;35515;48.766;9.176;2022-09-27T00:51:33;96571.63;;;11.24;89.25
49611;BME280;35515;48.766;9.176;2022-09-27T00:54:01;96566.00;;;11.30;90.32
49611;BME280;35515;48.766;9.176;2022-09-27T00:56:29;96557.13;;;11.40;88.96
49611;BME280;35515;48.766;9.176;2022-09-27T00:58:59;96561.28;;;11.20;90.68
49611;BME280;35515;48.766;9.176;2022-09-27T01:01:27;96560.25;;;11.27;91.54
49611;BME280;35515;48.766;9.176;2022-09-27T01:03:58;96562.50;;;11.35;90.79
49611;BME280;35515;48.766;9.176;2022-09-27T01:06:28;96569.22;;;11.60;88.36
49611;BME280;35515;48.766;9.176;2022-09-27T01:08:55;96565.41;;;11.61;87.82
49611;BME280;35515;48.766;9.176;2022-09-27T01:11:31;96562.28;;;11.42;89.40
49611;BME280;35515;48.766;9.176;2022-09-27T01:14:12;96572.53;;;11.34;90.49
49611;BME280;35515;48.766;9.176;2022-09-27T01:16:47;96572.22;;;11.31;90.26
49611;BME280;35515;48.766;9.176;2022-09-27T01:19:43;96570.09;;;11.38;88.83
49611;BME280;35515;48.766;9.176;2022-09-27T01:22:16;96571.19;;;11.37;90.07
49611;BME280;35515;48.766;9.176;2022-09-27T01:25:05;96579.06;;;11.38;89.98
49611;BME280;35515;48.766;9.176;2022-09-27T01:30:41;96575.78;;;11.36;91.05
49611;BME280;35515;48.766;9.176;2022-09-27T01:33:20;96564.28;;;11.57;89.33
49611;BME280;35515;48.766;9.176;2022-09-27T01:36:01;96572.09;;;11.48;89.89
49611;BME280;35515;48.766;9.176;2022-09-27T01:38:33;96571.56;;;11.51;89.35
49611;BME280;35515;48.766;9.176;2022-09-27T01:41:12;96565.03;;;11.47;89.50
49611;BME280;35515;48.766;9.176;2022-09-27T01:43:47;96565.41;;;11.61;88.66
49611;BME280;35515;48.766;9.176;2022-09-27T01:46:20;96559.66;;;11.52;89.56
49611;BME280;35515;48.766;9.176;2022-09-27T01:48:49;96563.22;;;11.58;89.48
49611;BME280;35515;48.766;9.176;2022-09-27T01:51:18;96570.78;;;11.50;89.73
49611;BME280;35515;48.766;9.176;2022-09-27T01:53:49;96574.53;;;11.49;89.82
49611;BME280;35515;48.766;9.176;2022-09-27T01:56:21;96566.47;;;11.54;90.15
49611;BME280;35515;48.766;9.176;2022-09-27T01:58:54;96570.06;;;11.33;91.47
49611;BME280;35515;48.766;9.176;2022-09-27T02:01:26;96573.66;;;11.38;91.62
49611;BME280;35515;48.766;9.176;2022-09-27T02:03:54;96576.31;;;11.33;92.59
49611;BME280;35515;48.766;9.176;2022-09-27T02:06:25;96571.75;;;11.39;92.24
49611;BME280;35515;48.766;9.176;2022-09-27T02:08:58;96575.78;;;11.36;92.60
49611;BME280;35515;48.766;9.176;2022-09-27T02:11:26;96572.22;;;11.31;93.58
49611;BME280;35515;48.766;9.176;2022-09-27T02:13:57;96576.69;;;11.47;92.08
49611;BME280;35515;48.766;9.176;2022-09-27T02:16:35;96584.50;;;11.38;93.47
49611;BME280;35515;48.766;9.176;2022-09-27T02:19:07;96589.81;;;11.56;92.30
49611;BME280;35515;48.766;9.176;2022-09-27T02:21:52;96596.41;;;11.37;95.10
49611;BME280;35515;48.766;9.176;2022-09-27T02:24:24;96603.47;;;11.38;95.73
49611;BME280;35515;48.766;9.176;2022-09-27T02:26:57;96607.63;;;11.51;94.75
49611;BME280;35515;48.766;9.176;2022-09-27T02:29:33;96602.69;;;11.43;96.35
49611;BME280;35515;48.766;9.176;2022-09-27T02:32:02;96617.78;;;11.34;97.20
49611;BME280;35515;48.766;9.176;2022-09-27T02:34:32;96622.06;;;11.30;97.62
49611;BME280;35515;48.766;9.176;2022-09-27T02:37:02;96621.53;;;11.28;93.51
49611;BME280;35515;48.766;9.176;2022-09-27T02:39:29;96616.53;;;11.14;93.98
49611;BME280;35515;48.766;9.176;2022-09-27T02:41:56;96622.44;;;11.11;89.99
49611;BME280;35515;48.766;9.176;2022-09-27T02:44:24;96608.72;;;10.96;91.78
49611;BME280;35515;48.766;9.176;2022-09-27T02:47:15;96614.03;;;10.85;93.19
49611;BME280;35515;48.766;9.176;2022-09-27T02:49:55;96614.53;;;10.82;93.11
49611;BME280;35515;48.766;9.176;2022-09-27T02:52:30;96619.75;;;10.89;92.28
49611;BME280;35515;48.766;9.176;2022-09-27T02:55:08;96625.75;;;10.69;94.36
49611;BME280;35515;48.766;9.176;2022-09-27T02:57:46;96625.75;;;10.69;95.41
49611;BME280;35515;48.766;9.176;2022-09-27T03:00:16;96640.34;;;10.90;93.87
49611;BME280;35515;48.766;9.176;2022-09-27T03:02:52;96626.97;;;10.83;92.49
49611;BME280;35515;48.766;9.176;2022-09-27T03:05:23;96629.22;;;10.86;91.05
49611;BME280;35515;48.766;9.176;2022-09-27T03:07:52;96635.63;;;11.02;90.97
49611;BME280;35515;48.766;9.176;2022-09-27T03:10:23;96640.03;;;10.86;91.53
49611;BME280;35515;48.766;9.176;2022-09-27T03:12:49;96642.84;;;10.97;90.88
49611;BME280;35515;48.766;9.176;2022-09-27T03:15:16;96640.53;;;11.06;88.67
49611;BME280;35515;48.766;9.176;2022-09-27T03:17:43;96641.44;;;10.89;89.26
49611;BME280;35515;48.766;9.176;2022-09-27T03:20:11;96638.84;;;10.77;90.66
49611;BME280;35515;48.766;9.176;2022-09-27T03:22:37;96651.44;;;10.88;89.96
49611;BME280;35515;48.766;9.176;2022-09-27T03:25:05;96649.78;;;10.87;89.12
49611;BME280;35515;48.766;9.176;2022-09-27T03:27:32;96654.06;;;10.83;90.64
49611;BME280;35515;48.766;9.176;2022-09-27T03:29:58;96650.75;;;10.98;89.37
49611;BME280;35515;48.766;9.176;2022-09-27T03:32:25;96662.84;;;10.91;89.56
49611;BME280;35515;48.766;9.176;2022-09-27T03:34:52;96660.75;;;10.53;91.03
49611;BME280;35515;48.766;9.176;2022-09-27T03:37:21;96661.69;;;10.64;90.95
49611;BME280;35515;48.766;9.176;2022-09-27T03:39:48;96661.19;;;10.67;90.55
49611;BME280;35515;48.766;9.176;2022-09-27T03:42:14;96670.69;;;10.70;89.70
49611;BME280;35515;48.766;9.176;2022-09-27T03:44:41;96669.38;;;10.73;90.42
49611;BME280;35515;48.766;9.176;2022-09-27T03:47:08;96668.72;;;10.82;90.15
49611;BME280;35515;48.766;9.176;2022-09-27T03:49:35;96668.50;;;10.67;91.55
49611;BME280;35515;48.766;9.176;2022-09-27T03:52:01;96666.56;;;10.84;89.71
49611;BME280;35515;48.766;9.176;2022-09-27T03:54:30;96670.59;;;10.82;88.74
49611;BME280;35515;48.766;9.176;2022-09-27T03:56:57;96663.97;;;10.73;90.64
49611;BME280;35515;48.766;9.176;2022-09-27T03:59:23;96665.94;;;10.77;90.66
49611;BME280;35515;48.766;9.176;2022-09-27T04:01:50;96668.00;;;10.92;90.43
49611;BME280;35515;48.766;9.176;2022-09-27T04:04:17;96660.50;;;10.77;90.65
49611;BME280;35515;48.766;9.176;2022-09-27T04:06:43;96659.56;;;10.88;88.43
49611;BME280;35515;48.766;9.176;2022-09-27T04:09:10;96667.06;;;10.81;89.90
49611;BME280;35515;48.766;9.176;2022-09-27T04:11:38;96669.66;;;10.93;89.62
49611;BME280;35515;48.766;9.176;2022-09-27T04:14:07;96666.75;;;11.00;87.99
49611;BME280;35515;48.766;9.176;2022-09-27T04:16:37;96667.19;;;10.92;89.65
49611;BME280;35515;48.766;9.176;2022-09-27T04:19:04;96676.13;;;10.92;89.73
49611;BME280;35515;48.766;9.176;2022-09-27T04:21:31;96669.72;;;10.76;90.16
49611;BME280;35515;48.766;9.176;2022-09-27T04:23:58;96676.72;;;10.55;92.83
49611;BME280;35515;48.766;9.176;2022-09-27T04:26:25;96680.22;;;10.73;90.49
49611;BME280;35515;48.766;9.176;2022-09-27T04:28:54;96681.13;;;10.78;90.87
49611;BME280;35515;48.766;9.176;2022-09-27T04:31:21;96687.16;;;10.85;90.70
49611;BME280;35515;48.766;9.176;2022-09-27T04:33:48;96680.69;;;10.86;91.24
49611;BME280;35515;48.766;9.176;2022-09-27T04:36:16;96675.75;;;10.83;90.59
49611;BME280;35515;48.766;9.176;2022-09-27T04:38:52;96678.22;;;10.85;90.81
49611;BME280;35515;48.766;9.176;2022-09-27T04:41:22;96669.84;;;10.86;90.32
49611;BME280;35515;48.766;9.176;2022-09-27T04:43:49;96684.88;;;10.99;89.59
49611;BME280;35515;48.766;9.176;2022-09-27T04:46:17;96675.06;;;10.71;89.71
49611;BME280;35515;48.766;9.176;2022-09-27T04:48:45;96674.00;;;10.72;90.49
49611;BME280;35515;48.766;9.176;2022-09-27T04:51:16;96694.59;;;10.95;89.32
49611;BME280;35515;48.766;9.176;2022-09-27T04:53:43;96693.03;;;10.77;89.41
49611;BME280;35515;48.766;9.176;2022-09-27T04:56:10;96692.13;;;10.94;89.35
49611;BME280;35515;48.766;9.176;2022-09-27T04:58:37;96698.81;;;10.86;90.40
49611;BME280;35515;48.766;9.176;2022-09-27T05:01:04;96705.50;;;10.78;90.72
49611;BME280;35515;48.766;9.176;2022-09-27T05:03:32;96712.91;;;10.66;91.28
49611;BME280;35515;48.766;9.176;2022-09-27T05:05:59;96709.19;;;10.72;91.78
49611;BME280;35515;48.766;9.176;2022-09-27T05:08:27;96715.28;;;11.01;89.54
49611;BME280;35515;48.766;9.176;2022-09-27T05:10:54;96720.81;;;10.90;89.43
49611;BME280;35515;48.766;9.176;2022-09-27T05:13:21;96726.28;;;10.95;89.94
49611;BME280;35515;48.766;9.176;2022-09-27T05:15:47;96733.47;;;10.84;91.77
49611;BME280;35515;48.766;9.176;2022-09-27T05:18:14;96739.97;;;10.66;93.30
49611;BME280;35515;48.766;9.176;2022-09-27T05:20:43;96734.84;;;10.86;91.82
49611;BME280;35515;48.766;9.176;2022-09-27T05:23:10;96733.66;;;10.77;92.96
49611;BME280;35515;48.766;9.176;2022-09-27T05:25:37;96737.69;;;10.75;93.11
49611;BME280;35515;48.766;9.176;2022-09-27T05:28:04;96738.31;;;10.82;93.01
49611;BME280;35515;48.766;9.176;2022-09-27T05:30:30;96739.31;;;10.76;93.31
49611;BME280;35515;48.766;9.176;2022-09-27T05:32:57;96748.34;;;10.81;91.48
49611;BME280;35515;48.766;9.176;2022-09-27T05:35:24;96755.09;;;10.62;93.99
49611;BME280;35515;48.766;9.176;2022-09-27T05:37:52;96750.97;;;10.76;93.15
49611;BME280;35515;48.766;9.176;2022-09-27T05:40:19;96762.69;;;10.65;93.71
49611;BME280;35515;48.766;9.176;2022-09-27T05:42:49;96765.91;;;10.79;93.37
49611;BME280;35515;48.766;9.176;2022-09-27T05:45:16;96769.34;;;10.74;94.53
49611;BME280;35515;48.766;9.176;2022-09-27T05:47:42;96784.63;;;10.63;96.10
49611;BME280;35515;48.766;9.176;2022-09-27T05:50:09;96782.31;;;10.72;95.80
49611;BME280;35515;48.766;9.176;2022-09-27T05:52:36;96784.94;;;10.67;95.74
49611;BME280;35515;48.766;9.176;2022-09-27T05:55:04;96783.72;;;10.58;97.33
49611;BME280;35515;48.766;9.176;2022-09-27T05:57:31;96790.88;;;10.64;94.12
49611;BME280;35515;48.766;9.176;2022-09-27T05:59:59;96798.19;;;10.46;94.70
49611;BME280;35515;48.766;9.176;2022-09-27T06:02:25;96802.13;;;10.39;94.21
49611;BME280;35515;48.766;9.176;2022-09-27T06:04:52;96798.16;;;10.29;95.49
49611;BME280;35515;48.766;9.176;2022-09-27T06:07:19;96795.94;;;10.60;93.70
49611;BME280;35515;48.766;9.176;2022-09-27T06:09:46;96806.53;;;10.62;94.60
49611;BME280;35515;48.766;9.176;2022-09-27T06:12:14;96807.84;;;10.59;94.43
49611;BME280;35515;48.766;9.176;2022-09-27T06:14:40;96814.75;;;10.67;92.80
49611;BME280;35515;48.766;9.176;2022-09-27T06:17:07;96811.94;;;10.62;93.19
49611;BME280;35515;48.766;9.176;2022-09-27T06:19:34;96819.25;;;10.78;93.56
49611;BME280;35515;48.766;9.176;2022-09-27T06:22:00;96821.31;;;10.71;93.12
49611;BME280;35515;48.766;9.176;2022-09-27T06:24:27;96827.47;;;10.49;95.82
49611;BME280;35515;48.766;9.176;2022-09-27T06:26:54;96831.97;;;10.61;95.93
49611;BME280;35515;48.766;9.176;2022-09-27T06:29:22;96823.38;;;10.47;96.23
49611;BME280;35515;48.766;9.176;2022-09-27T06:31:48;96828.44;;;10.43;96.32
49611;BME280;35515;48.766;9.176;2022-09-27T06:34:15;96828.78;;;10.64;95.04
49611;BME280;35515;48.766;9.176;2022-09-27T06:36:42;96827.31;;;10.73;94.39
49611;BME280;35515;48.766;9.176;2022-09-27T06:39:08;96828.63;;;10.70;95.40
49611;BME280;35515;48.766;9.176;2022-09-27T06:41:35;96829.09;;;10.67;95.08
49611;BME280;35515;48.766;9.176;2022-09-27T06:44:02;96844.53;;;10.67;94.57
49611;BME280;35515;48.766;9.176;2022-09-27T06:46:30;96847.50;;;10.65;94.44
49611;BME280;35515;48.766;9.176;2022-09-27T06:48:57;96857.34;;;10.54;93.23
49611;BME280;35515;48.766;9.176;2022-09-27T06:51:23;96855.19;;;10.57;92.25
49611;BME280;35515;48.766;9.176;2022-09-27T06:53:50;96863.47;;;10.50;92.82
49611;BME280;35515;48.766;9.176;2022-09-27T06:56:17;96858.81;;;10.45;92.37
49611;BME280;35515;48.766;9.176;2022-09-27T06:58:44;96857.00;;;10.51;92.76
49611;BME280;35515;48.766;9.176;2022-09-27T07:01:30;96857.09;;;10.73;90.44
49611;BME280;35515;48.766;9.176;2022-09-27T07:03:56;96870.13;;;10.59;88.61
49611;BME280;35515;48.766;9.176;2022-09-27T07:06:24;96863.81;;;10.53;90.72
49611;BME280;35515;48.766;9.176;2022-09-27T07:08:51;96868.72;;;10.57;89.53
49611;BME280;35515;48.766;9.176;2022-09-27T07:11:18;96866.63;;;10.59;89.23
49611;BME280;35515;48.766;9.176;2022-09-27T07:13:46;96867.84;;;10.68;88.81
49611;BME280;35515;48.766;9.176;2022-09-27T07:16:13;96873.09;;;10.75;88.74
49611;BME280;35515;48.766;9.176;2022-09-27T07:18:41;96878.53;;;10.75;89.52
49611;BME280;35515;48.766;9.176;2022-09-27T07:21:08;96870.16;;;10.76;89.55
49611;BME280;35515;48.766;9.176;2022-09-27T07:23:36;96881.31;;;10.63;90.44
49611;BME280;35515;48.766;9.176;2022-09-27T07:26:04;96886.41;;;10.76;89.49
49611;BME280;35515;48.766;9.176;2022-09-27T07:28:33;96891.47;;;10.90;90.59
49611;BME280;35515;48.766;9.176;2022-09-27T07:31:00;96888.84;;;10.95;87.44
49611;BME280;35515;48.766;9.176;2022-09-27T07:33:28;96893.13;;;10.74;88.91
49611;BME280;35515;48.766;9.176;2022-09-27T07:35:56;96894.78;;;10.75;87.44
49611;BME280;35515;48.766;9.176;2022-09-27T07:38:23;96905.78;;;10.68;88.32
49611;BME280;35515;48.766;9.176;2022-09-27T07:40:50;96913.81;;;10.97;85.89
49611;BME280;35515;48.766;9.176;2022-09-27T07:43:16;96911.19;;;10.68;85.91
49611;BME280;35515;48.766;9.176;2022-09-27T07:45:43;96915.09;;;10.60;88.12
49611;BME280;35515;48.766;9.176;2022-09-27T07:48:12;96916.47;;;10.46;88.62
49611;BME280;35515;48.766;9.176;2022-09-27T07:50:39;96914.59;;;10.63;89.59
49611;BME280;35515;48.766;9.176;2022-09-27T07:53:07;96925.78;;;10.67;86.98
49611;BME280;35515;48.766;9.176;2022-09-27T07:55:37;96924.78;;;10.56;87.27
49611;BME280;35515;48.766;9.176;2022-09-27T07:58:05;96926.28;;;10.64;87.91
49611;BME280;35515;48.766;9.176;2022-09-27T08:00:33;96916.56;;;10.51;87.06
49611;BME280;35515;48.766;9.176;2022-09-27T08:03:11;96925.34;;;10.58;86.29
49611;BME280;35515;48.766;9.176;2022-09-27T08:05:40;96927.75;;;10.71;84.77
49611;BME280;35515;48.766;9.176;2022-09-27T08:08:08;96936.47;;;10.74;85.39
49611;BME280;35515;48.766;9.176;2022-09-27T08:10:37;96941.06;;;10.73;85.60
49611;BME280;35515;48.766;9.176;2022-09-27T08:13:09;96945.41;;;10.74;86.12
49611;BME280;35515;48.766;9.176;2022-09-27T08:15:36;96955.91;;;10.87;85.17
49611;BME280;35515;48.766;9.176;2022-09-27T08:18:04;96949.41;;;10.71;83.61
49611;BME280;35515;48.766;9.176;2022-09-27T08:20:31;96958.19;;;10.62;83.40
49611;BME280;35515;48.766;9.176;2022-09-27T08:22:58;96965.22;;;10.46;84.02
49611;BME280;35515;48.766;9.176;2022-09-27T08:25:26;96957.69;;;10.48;85.83
49611;BME280;35515;48.766;9.176;2022-09-27T08:27:55;96961.19;;;10.48;86.33
49611;BME280;35515;48.766;9.176;2022-09-27T08:30:22;96951.38;;;10.59;84.54
49611;BME280;35515;48.766;9.176;2022-09-27T08:32:49;96946.59;;;10.78;84.26
49611;BME280;35515;48.766;9.176;2022-09-27T08:35:19;96959.13;;;10.84;81.84
49611;BME280;35515;48.766;9.176;2022-09-27T08:37:52;96956.16;;;10.86;83.95
49611;BME280;35515;48.766;9.176;2022-09-27T08:40:20;96967.75;;;10.81;82.36
49611;BME280;35515;48.766;9.176;2022-09-27T08:42:59;96969.66;;;10.98;82.98
49611;BME280;35515;48.766;9.176;2022-09-27T08:45:30;96973.66;;;10.78;80.83
49611;BME280;35515;48.766;9.176;2022-09-27T08:47:59;96977.22;;;11.13;79.48
49611;BME280;35515;48.766;9.176;2022-09-27T08:50:28;96980.81;;;11.01;79.41
49611;BME280;35515;48.766;9.176;2022-09-27T08:52:59;96979.53;;;11.21;78.91
49611;BME280;35515;48.766;9.176;2022-09-27T08:55:31;96983.75;;;10.83;79.76
49611;BME280;35515;48.766;9.176;2022-09-27T08:58:10;96976.13;;;10.97;82.63
49611;BME280;35515;48.766;9.176;2022-09-27T09:00:38;96978.19;;;10.90;81.15
49611;BME280;35515;48.766;9.176;2022-09-27T09:03:04;96993.78;;;10.82;81.41
49611;BME280;35515;48.766;9.176;2022-09-27T09:05:33;96983.50;;;10.84;79.17
49611;BME280;35515;48.766;9.176;2022-09-27T09:08:14;96984.22;;;10.63;80.92
49611;BME280;35515;48.766;9.176;2022-09-27T09:10:50;96984.13;;;10.58;82.10
49611;BME280;35515;48.766;9.176;2022-09-27T09:16:30;96983.25;;;10.86;81.41
49611;BME280;35515;48.766;9.176;2022-09-27T09:19:17;96974.41;;;10.91;80.97
49611;BME280;35515;48.766;9.176;2022-09-27T09:21:58;96975.91;;;10.98;81.13
49611;BME280;35515;48.766;9.176;2022-09-27T09:24:46;96970.38;;;11.10;82.46
49611;BME280;35515;48.766;9.176;2022-09-27T09:27:21;96975.75;;;11.05;80.86
49611;BME280;35515;48.766;9.176;2022-09-27T09:30:00;96977.22;;;11.30;78.31
49611;BME280;35515;48.766;9.176;2022-09-27T09:32:40;96964.06;;;11.04;74.91
49611;BME280;35515;48.766;9.176;2022-09-27T09:35:16;96976.22;;;11.02;75.91
49611;BME280;35515;48.766;9.176;2022-09-27T09:37:44;96979.00;;;11.07;75.51
49611;BME280;35515;48.766;9.176;2022-09-27T09:40:19;96979.03;;;11.24;72.53
49611;BME280;35515;48.766;9.176;2022-09-27T09:42:53;96982.47;;;11.19;73.92
49611;BME280;35515;48.766;9.176;2022-09-27T09:45:24;96978.03;;;11.13;72.41
49611;BME280;35515;48.766;9.176;2022-09-27T09:47:58;96971.47;;;11.09;73.46
49611;BME280;35515;48.766;9.176;2022-09-27T09:50:30;96965.56;;;11.46;75.14
49611;BME280;35515;48.766;9.176;2022-09-27T09:53:04;96959.97;;;11.36;75.22
49611;BME280;35515;48.766;9.176;2022-09-27T09:55:37;96961.28;;;11.50;70.67
49611;BME280;35515;48.766;9.176;2022-09-27T09:58:15;96957.97;;;11.48;70.97
49611;BME280;35515;48.766;9.176;2022-09-27T10:00:46;96956.81;;;11.44;70.92
49611;BME280;35515;48.766;9.176;2022-09-27T10:03:16;96951.41;;;11.44;71.47
49611;BME280;35515;48.766;9.176;2022-09-27T10:05:44;96946.06;;;11.49;70.42
49611;BME280;35515;48.766;9.176;2022-09-27T10:08:16;96940.47;;;11.56;69.42
49611;BME280;35515;48.766;9.176;2022-09-27T10:10:44;96929.03;;;11.54;69.81
49611;BME280;35515;48.766;9.176;2022-09-27T10:13:14;96933.72;;;11.59;67.86
49611;BME280;35515;48.766;9.176;2022-09-27T10:15:41;96932.41;;;11.83;67.43
49611;BME280;35515;48.766;9.176;2022-09-27T10:18:16;96943.50;;;11.99;67.26
49611;BME280;35515;48.766;9.176;2022-09-27T10:20:50;96950.16;;;11.91;67.93
49611;BME280;35515;48.766;9.176;2022-09-27T10:23:20;96933.44;;;11.99;66.08
49611;BME280;35515;48.766;9.176;2022-09-27T10:25:52;96939.19;;;12.03;67.75
49611;BME280;35515;48.766;9.176;2022-09-27T10:28:28;96944.06;;;12.01;67.22
49611;BME280;35515;48.766;9.176;2022-09-27T10:30:58;96948.81;;;11.94;66.91
49611;BME280;35515;48.766;9.176;2022-09-27T10:33:27;96955.16;;;11.99;66.62
49611;BME280;35515;48.766;9.176;2022-09-27T10:35:56;96945.34;;;11.76;68.68
49611;BME280;35515;48.766;9.176;2022-09-27T10:38:26;96944.03;;;11.79;68.25
49611;BME280;35515;48.766;9.176;2022-09-27T10:40:55;96943.13;;;11.73;69.44
49611;BME280;35515;48.766;9.176;2022-09-27T10:43:28;96936.41;;;11.76;69.12
49611;BME280;35515;48.766;9.176;2022-09-27T10:46:11;96942.03;;;12.13;67.81
49611;BME280;35515;48.766;9.176;2022-09-27T10:48:40;96937.81;;;12.23;66.36
49611;BME280;35515;48.766;9.176;2022-09-27T10:51:21;96932.69;;;12.04;65.30
49611;BME280;35515;48.766;9.176;2022-09-27T10:53:49;96922.53;;;12.16;65.36
49611;BME280;35515;48.766;9.176;2022-09-27T10:56:26;96919.19;;;12.09;64.60
49611;BME280;35515;48.766;9.176;2022-09-27T10:58:54;96915.44;;;12.15;66.02
49611;BME280;35515;48.766;9.176;2022-09-27T11:01:21;96909.34;;;12.25;65.56
49611;BME280;35515;48.766;9.176;2022-09-27T11:03:52;96912.19;;;12.13;67.68
49611;BME280;35515;48.766;9.176;2022-09-27T11:06:28;96916.56;;;12.19;67.06
49611;BME280;35515;48.766;9.176;2022-09-27T11:09:09;96892.16;;;12.19;68.27
49611;BME280;35515;48.766;9.176;2022-09-27T11:11:40;96897.28;;;12.16;67.91
49611;BME280;35515;48.766;9.176;2022-09-27T11:14:19;96901.00;;;12.32;67.12
49611;BME280;35515;48.766;9.176;2022-09-27T11:17:00;96901.78;;;12.32;66.89
49611;BME280;35515;48.766;9.176;2022-09-27T11:23:22;96893.34;;;12.29;67.02
49611;BME280;35515;48.766;9.176;2022-09-27T11:26:04;96893.75;;;12.43;66.30
49611;BME280;35515;48.766;9.176;2022-09-27T11:28:43;96891.00;;;12.37;65.21
49611;BME280;35515;48.766;9.176;2022-09-27T11:31:18;96889.66;;;12.40;65.36
49611;BME280;35515;48.766;9.176;2022-09-27T11:34:13;96882.44;;;12.51;63.71
49611;BME280;35515;48.766;9.176;2022-09-27T11:36:58;96882.16;;;12.52;63.75
49611;BME280;35515;48.766;9.176;2022-09-27T11:39:42;96874.00;;;12.52;64.07
49611;BME280;35515;48.766;9.176;2022-09-27T11:42:27;96893.78;;;12.75;62.51
49611;BME280;35515;48.766;9.176;2022-09-27T11:45:10;96888.81;;;12.67;61.94
49611;BME280;35515;48.766;9.176;2022-09-27T11:47:46;96890.09;;;12.59;62.81
49611;BME280;35515;48.766;9.176;2022-09-27T11:50:43;96883.66;;;12.38;63.28
49611;BME280;35515;48.766;9.176;2022-09-27T11:53:23;96888.06;;;12.44;64.17
49611;BME280;35515;48.766;9.176;2022-09-27T11:56:04;96896.16;;;12.39;64.70
49611;BME280;35515;48.766;9.176;2022-09-27T11:58:40;96904.72;;;12.53;64.10
49611;BME280;35515;48.766;9.176;2022-09-27T12:01:18;96906.50;;;12.42;65.60
49611;BME280;35515;48.766;9.176;2022-09-27T12:04:25;96903.78;;;12.42;65.35
49611;BME280;35515;48.766;9.176;2022-09-27T12:07:02;96913.78;;;12.36;64.50
49611;BME280;35515;48.766;9.176;2022-09-27T12:09:33;96912.34;;;12.29;65.15
49611;BME280;35515;48.766;9.176;2022-09-27T12:12:07;96913.38;;;12.23;66.89
49611;BME280;35515;48.766;9.176;2022-09-27T12:14:38;96925.03;;;12.23;68.06
49611;BME280;35515;48.766;9.176;2022-09-27T12:17:10;96922.28;;;11.96;69.21
49611;BME280;35515;48.766;9.176;2022-09-27T12:19:42;96929.28;;;11.92;68.66
49611;BME280;35515;48.766;9.176;2022-09-27T12:22:14;96921.84;;;11.26;71.33
49611;BME280;35515;48.766;9.176;2022-09-27T12:24:44;96931.81;;;11.03;73.05
49611;BME280;35515;48.766;9.176;2022-09-27T12:27:15;96932.03;;;10.84;76.49
49611;BME280;35515;48.766;9.176;2022-09-27T12:29:45;96924.47;;;11.03;77.40
49611;BME280;35515;48.766;9.176;2022-09-27T12:32:16;96934.94;;;11.12;78.28
49611;BME280;35515;48.766;9.176;2022-09-27T12:34:48;96924.81;;;10.73;80.44
49611;BME280;35515;48.766;9.176;2022-09-27T12:37:19;96924.13;;;10.66;80.40
49611;BME280;35515;48.766;9.176;2022-09-27T12:39:52;96924.19;;;10.54;82.41
49611;BME280;35515;48.766;9.176;2022-09-27T12:42:23;96917.97;;;10.53;82.42
49611;BME280;35515;48.766;9.176;2022-09-27T12:44:50;96921.53;;;10.42;83.12
49611;BME280;35515;48.766;9.176;2022-09-27T12:47:41;96914.75;;;10.57;82.14
49611;BME280;35515;48.766;9.176;2022-09-27T12:50:21;96920.09;;;10.51;82.91
49611;BME280;35515;48.766;9.176;2022-09-27T12:52:54;96913.00;;;10.62;83.31
49611;BME280;35515;48.766;9.176;2022-09-27T12:55:45;96898.53;;;10.57;83.25
49611;BME280;35515;48.766;9.176;2022-09-27T12:58:40;96906.63;;;10.57;82.95
49611;BME280;35515;48.766;9.176;2022-09-27T13:01:19;96896.75;;;10.62;82.76
49611;BME280;35515;48.766;9.176;2022-09-27T13:04:03;96893.28;;;10.67;84.10
49611;BME280;35515;48.766;9.176;2022-09-27T13:06:47;96890.97;;;10.93;84.64
49611;BME280;35515;48.766;9.176;2022-09-27T13:12:20;96890.00;;;11.16;82.68
49611;BME280;35515;48.766;9.176;2022-09-27T13:14:57;96891.31;;;11.13;82.78
49611;BME280;35515;48.766;9.176;2022-09-27T13:17:51;96894.44;;;11.05;83.85
49611;BME280;35515;48.766;9.176;2022-09-27T13:20:42;96886.41;;;10.93;84.92
49611;BME280;35515;48.766;9.176;2022-09-27T13:29:31;96891.72;;;10.71;85.98
49611;BME280;35515;48.766;9.176;2022-09-27T13:32:14;96888.34;;;10.98;84.67
49611;BME280;35515;48.766;9.176;2022-09-27T13:34:43;96909.47;;;10.96;84.52
49611;BME280;35515;48.766;9.176;2022-09-27T13:37:36;96896.59;;;10.69;85.40
49611;BME280;35515;48.766;9.176;2022-09-27T13:40:10;96889.31;;;10.41;88.05
49611;BME280;35515;48.766;9.176;2022-09-27T13:42:51;96874.00;;;10.63;85.26